Time;durP1;ratioP1;P1;durP2;ratioP2;P2;SDS_P1;SDS_P2;PMS_P1;PMS_P2;Temp;Humidity;BMP_temperature;BMP_pressure;BME280_temperature;BME280_humidity;BME280_pressure;Samples;Min_cycle;Max_cycle;Signal;HPM_P1;HPM_P2
2022/06/17 00:01:38;;;;;;;;;;;14.60;1.00;;;;;;5033643;28;19927;-77
2022/06/17 00:04:03;;;;;;;;;;;14.60;1.00;;;;;;5034190;28;19921;-77
2022/06/17 00:06:33;;;;;;;;;;;14.60;1.00;;;;;;5034002;28;19925;-77
2022/06/17 00:08:59;;;;;;;;;;;14.60;1.00;;;;;;5033686;28;19948;-77
2022/06/17 00:11:26;;;;;;;;;;;14.60;1.00;;;;;;5033569;28;19921;-77
2022/06/17 00:13:51;;;;;;;;;;;14.60;1.00;;;;;;5034320;28;20063;-76
2022/06/17 00:16:19;;;;;;;;;;;14.60;1.00;;;;;;5032920;28;19997;-77
2022/06/17 00:18:45;;;;;;;;;;;14.50;1.00;;;;;;5033355;28;20261;-77
2022/06/17 00:21:21;;;;;;;;;;;14.60;1.00;;;;;;5033516;28;19932;-77
2022/06/17 00:23:47;;;;;;;;;;;14.50;1.00;;;;;;5033796;28;20004;-76
2022/06/17 00:26:13;;;;;;;;;;;14.50;1.00;;;;;;5031613;28;20062;-77
2022/06/17 00:28:38;;;;;;;;;;;14.50;1.00;;;;;;5033764;28;19924;-77
2022/06/17 00:31:04;;;;;;;;;;;14.40;99.90;;;;;;5015572;28;19996;-76
2022/06/17 00:33:29;;;;;;;;;;;14.40;99.90;;;;;;5033613;28;20446;-76
2022/06/17 00:35:55;;;;;;;;;;;14.40;1.00;;;;;;5032400;28;19940;-76
2022/06/17 00:38:39;;;;;;;;;;;14.40;99.90;;;;;;5033093;28;19921;-76
2022/06/17 00:41:31;;;;;;;;;;;14.40;99.90;;;;;;5033365;28;20362;-76
2022/06/17 00:44:00;;;;;;;;;;;14.40;99.90;;;;;;5028796;28;20397;-76
2022/06/17 00:46:33;;;;;;;;;;;14.40;1.00;;;;;;5033466;28;19921;-76
2022/06/17 00:49:09;;;;;;;;;;;14.40;1.00;;;;;;5033270;28;19940;-76
2022/06/17 00:51:40;;;;;;;;;;;14.40;1.00;;;;;;5032874;28;19921;-77
2022/06/17 00:54:21;;;;;;;;;;;14.30;1.00;;;;;;5033202;28;20298;-77
2022/06/17 00:56:47;;;;;;;;;;;14.30;1.00;;;;;;5033323;28;19921;-77
2022/06/17 00:59:16;;;;;;;;;;;14.30;1.00;;;;;;5032317;28;19982;-77
2022/06/17 01:01:46;;;;;;;;;;;14.20;1.00;;;;;;5033144;28;19921;-77
2022/06/17 01:04:12;;;;;;;;;;;14.30;1.00;;;;;;5032529;28;19921;-77
2022/06/17 01:06:40;;;;;;;;;;;14.30;1.00;;;;;;5033400;28;19921;-77
2022/06/17 01:11:56;;;;;;;;;;;14.40;1.00;;;;;;5033414;28;19921;-76
2022/06/17 01:14:23;;;;;;;;;;;14.40;1.00;;;;;;5030996;28;20008;-77
2022/06/17 01:16:49;;;;;;;;;;;14.50;1.00;;;;;;5033070;28;19921;-77
2022/06/17 01:19:23;;;;;;;;;;;14.50;1.00;;;;;;5032406;28;19921;-77
2022/06/17 01:21:57;;;;;;;;;;;14.50;1.00;;;;;;5033871;28;20020;-77
2022/06/17 01:24:23;;;;;;;;;;;14.40;1.00;;;;;;5031757;28;19920;-77
2022/06/17 01:26:49;;;;;;;;;;;14.30;1.00;;;;;;5032057;28;19925;-77
2022/06/17 01:29:15;;;;;;;;;;;14.30;1.00;;;;;;5032956;28;19944;-77
2022/06/17 01:31:43;;;;;;;;;;;14.30;1.00;;;;;;5033318;28;19921;-76
2022/06/17 01:34:11;;;;;;;;;;;14.30;1.00;;;;;;5031725;28;19951;-77
2022/06/17 01:36:36;;;;;;;;;;;14.20;1.00;;;;;;5031257;28;20306;-77
2022/06/17 01:39:02;;;;;;;;;;;14.20;1.00;;;;;;5033043;28;19928;-77
2022/06/17 01:41:30;;;;;;;;;;;14.20;1.00;;;;;;5014357;28;19921;-76
2022/06/17 01:43:58;;;;;;;;;;;14.10;1.00;;;;;;5032136;28;19921;-76
2022/06/17 01:46:26;;;;;;;;;;;14.20;1.00;;;;;;5031332;28;19925;-76
2022/06/17 01:48:55;;;;;;;;;;;14.20;1.00;;;;;;5032008;28;20360;-76
2022/06/17 01:51:21;;;;;;;;;;;14.20;1.00;;;;;;5031870;28;19921;-77
2022/06/17 01:53:49;;;;;;;;;;;14.30;1.00;;;;;;5032328;28;19982;-76
2022/06/17 01:56:16;;;;;;;;;;;14.30;1.00;;;;;;5032057;28;19921;-77
2022/06/17 01:59:03;;;;;;;;;;;14.30;1.00;;;;;;5031704;28;19921;-77
2022/06/17 02:01:30;;;;;;;;;;;14.30;1.00;;;;;;5031468;28;20092;-77
2022/06/17 02:03:58;;;;;;;;;;;14.20;1.00;;;;;;5031248;28;20309;-76
2022/06/17 02:06:23;;;;;;;;;;;14.30;1.00;;;;;;5031172;28;20123;-76
2022/06/17 02:08:51;;;;;;;;;;;14.20;1.00;;;;;;5032377;28;20231;-76
2022/06/17 02:11:17;;;;;;;;;;;14.20;1.00;;;;;;5031837;28;19921;-77
2022/06/17 02:13:42;;;;;;;;;;;14.80;1.00;;;;;;5031488;28;19936;-77
2022/06/17 02:16:09;;;;;;;;;;;14.20;1.00;;;;;;5031650;28;20004;-76
2022/06/17 02:18:35;;;;;;;;;;;14.20;1.00;;;;;;5029942;28;20281;-77
2022/06/17 02:21:02;;;;;;;;;;;15.20;1.00;;;;;;5031329;28;19939;-76
2022/06/17 02:23:29;;;;;;;;;;;14.20;1.00;;;;;;5031531;28;19925;-76
2022/06/17 02:25:56;;;;;;;;;;;14.20;1.00;;;;;;5030524;28;20474;-76
2022/06/17 02:28:22;;;;;;;;;;;14.10;1.00;;;;;;5030659;28;20003;-76
2022/06/17 02:30:48;;;;;;;;;;;14.20;1.00;;;;;;5013534;28;19967;-76
2022/06/17 02:33:14;;;;;;;;;;;14.30;1.00;;;;;;4997626;28;19927;-76
2022/06/17 02:35:46;;;;;;;;;;;14.40;1.00;;;;;;5031713;28;19925;-76
2022/06/17 02:38:13;;;;;;;;;;;14.40;1.00;;;;;;5031067;28;19921;-76
2022/06/17 02:40:40;;;;;;;;;;;14.40;1.00;;;;;;5030935;28;19921;-76
2022/06/17 02:43:17;;;;;;;;;;;14.40;1.00;;;;;;5013810;28;19921;-76
2022/06/17 02:45:45;;;;;;;;;;;14.50;1.00;;;;;;5031060;28;19974;-76
2022/06/17 02:48:19;;;;;;;;;;;14.40;1.00;;;;;;5030850;28;19932;-77
2022/06/17 02:50:45;;;;;;;;;;;14.40;1.00;;;;;;5030667;28;19928;-76
2022/06/17 02:53:11;;;;;;;;;;;14.40;1.00;;;;;;5030902;28;20190;-76
2022/06/17 02:55:39;;;;;;;;;;;14.40;1.00;;;;;;5030020;28;20344;-76
2022/06/17 02:58:11;;;;;;;;;;;14.40;1.00;;;;;;5031261;28;20269;-76
2022/06/17 03:00:36;;;;;;;;;;;14.40;1.00;;;;;;5029346;28;19921;-76
2022/06/17 03:03:05;;;;;;;;;;;14.40;1.00;;;;;;5029869;28;20384;-76
2022/06/17 03:05:32;;;;;;;;;;;14.40;1.00;;;;;;5029664;28;19983;-76
2022/06/17 03:07:59;;;;;;;;;;;14.40;1.00;;;;;;5012786;28;19921;-76
2022/06/17 03:10:28;;;;;;;;;;;14.60;1.00;;;;;;5029917;28;20396;-77
2022/06/17 03:12:56;;;;;;;;;;;14.30;1.00;;;;;;5029884;28;20315;-76
2022/06/17 03:15:22;;;;;;;;;;;14.20;1.00;;;;;;5029312;28;19921;-76
2022/06/17 03:17:48;;;;;;;;;;;14.20;1.00;;;;;;5029581;28;19975;-77
2022/06/17 03:20:17;;;;;;;;;;;14.20;1.00;;;;;;5029633;28;19943;-76
2022/06/17 03:22:47;;;;;;;;;;;14.20;1.00;;;;;;5029706;28;19982;-77
2022/06/17 03:25:24;;;;;;;;;;;14.40;1.00;;;;;;5012255;28;19921;-76
2022/06/17 03:27:49;;;;;;;;;;;14.50;1.00;;;;;;5012921;28;20333;-76
2022/06/17 03:30:20;;;;;;;;;;;14.60;1.00;;;;;;5031430;28;19925;-76
2022/06/17 03:32:49;;;;;;;;;;;14.80;1.00;;;;;;5029603;28;20129;-76
2022/06/17 03:35:17;;;;;;;;;;;14.90;1.00;;;;;;5029751;28;19921;-76
2022/06/17 03:37:55;;;;;;;;;;;14.90;1.00;;;;;;5012651;28;19921;-76
2022/06/17 03:40:22;;;;;;;;;;;15.00;1.00;;;;;;5030483;28;20068;-76
2022/06/17 03:43:07;;;;;;;;;;;15.00;1.00;;;;;;5029624;28;19929;-77
2022/06/17 03:45:43;;;;;;;;;;;15.00;1.00;;;;;;5030792;28;20385;-76
2022/06/17 03:48:27;;;;;;;;;;;15.00;1.00;;;;;;5030424;28;20397;-76
2022/06/17 03:50:53;;;;;;;;;;;15.00;1.00;;;;;;4996506;28;19933;-77
2022/06/17 03:53:22;;;;;;;;;;;14.90;1.00;;;;;;5030409;28;19929;-77
2022/06/17 03:55:47;;;;;;;;;;;15.00;1.00;;;;;;5030231;28;19944;-76
2022/06/17 03:58:15;;;;;;;;;;;15.00;1.00;;;;;;5030657;28;20341;-77
2022/06/17 04:00:43;;;;;;;;;;;14.90;1.00;;;;;;5012893;28;19921;-77
2022/06/17 04:03:13;;;;;;;;;;;15.00;1.00;;;;;;5030363;28;19937;-76
2022/06/17 04:05:39;;;;;;;;;;;15.00;1.00;;;;;;5012801;28;19921;-76
2022/06/17 04:08:05;;;;;;;;;;;15.00;1.00;;;;;;5013045;28;19940;-76
2022/06/17 04:10:31;;;;;;;;;;;15.00;1.00;;;;;;5029911;28;19925;-76
2022/06/17 04:12:57;;;;;;;;;;;15.10;1.00;;;;;;5032148;28;19917;-77
2022/06/17 04:15:41;;;;;;;;;;;15.40;1.00;;;;;;5033681;28;20015;-77
2022/06/17 04:18:07;;;;;;;;;;;15.40;1.00;;;;;;5016598;28;19928;-76
2022/06/17 04:20:54;;;;;;;;;;;15.50;1.00;;;;;;5034441;28;19925;-77
2022/06/17 04:23:21;;;;;;;;;;;15.60;1.00;;;;;;5015927;28;19931;-77
2022/06/17 04:25:50;;;;;;;;;;;15.70;1.00;;;;;;5032951;28;19975;-77
2022/06/17 04:28:21;;;;;;;;;;;15.80;1.00;;;;;;5015400;28;20101;-77
2022/06/17 04:30:48;;;;;;;;;;;15.80;99.90;;;;;;5033147;28;20370;-77
2022/06/17 04:33:19;;;;;;;;;;;15.90;1.00;;;;;;5033348;28;19966;-77
2022/06/17 04:35:45;;;;;;;;;;;16.00;1.00;;;;;;5033004;28;19928;-77
2022/06/17 04:38:10;;;;;;;;;;;16.00;1.00;;;;;;5000220;28;19928;-77
2022/06/17 04:40:38;;;;;;;;;;;16.10;99.90;;;;;;5033279;28;19921;-78
2022/06/17 04:43:07;;;;;;;;;;;16.10;1.00;;;;;;5033786;28;20017;-76
2022/06/17 04:45:33;;;;;;;;;;;16.20;1.00;;;;;;5033602;28;19921;-76
2022/06/17 04:47:58;;;;;;;;;;;16.30;1.00;;;;;;5015261;28;19920;-76
2022/06/17 04:50:25;;;;;;;;;;;16.30;99.90;;;;;;5033543;28;20401;-76
2022/06/17 04:52:51;;;;;;;;;;;16.30;1.00;;;;;;5015580;28;19993;-75
2022/06/17 04:55:17;;;;;;;;;;;16.40;99.90;;;;;;5032860;28;19920;-76
2022/06/17 04:57:42;;;;;;;;;;;16.40;99.90;;;;;;5015257;28;19991;-77
2022/06/17 05:00:15;;;;;;;;;;;16.40;99.90;;;;;;5032464;28;20027;-77
2022/06/17 05:02:40;;;;;;;;;;;16.40;99.90;;;;;;5032650;28;20369;-77
2022/06/17 05:05:08;;;;;;;;;;;16.40;99.90;;;;;;5033459;28;19971;-77
2022/06/17 05:07:39;;;;;;;;;;;16.50;99.90;;;;;;5032364;28;19921;-77
2022/06/17 05:10:07;;;;;;;;;;;16.50;99.90;;;;;;5033291;28;19991;-78
2022/06/17 05:12:42;;;;;;;;;;;16.60;99.90;;;;;;5032608;28;20008;-78
2022/06/17 05:15:12;;;;;;;;;;;16.60;99.90;;;;;;5031895;28;20353;-79
2022/06/17 05:17:40;;;;;;;;;;;16.70;99.90;;;;;;5033810;28;20259;-78
2022/06/17 05:20:06;;;;;;;;;;;16.80;99.90;;;;;;5033051;28;19968;-78
2022/06/17 05:22:35;;;;;;;;;;;16.90;99.90;;;;;;5032711;28;20043;-78
2022/06/17 05:25:02;;;;;;;;;;;17.10;99.90;;;;;;5033435;28;19916;-77
2022/06/17 05:27:28;;;;;;;;;;;17.20;99.90;;;;;;5033323;28;20376;-77
2022/06/17 05:29:53;;;;;;;;;;;17.20;99.90;;;;;;5032101;28;20024;-78
2022/06/17 05:32:19;;;;;;;;;;;17.30;99.90;;;;;;5033394;28;20365;-78
2022/06/17 05:34:45;;;;;;;;;;;17.30;99.90;;;;;;5015269;28;19921;-78
2022/06/17 05:37:11;;;;;;;;;;;17.20;99.90;;;;;;5033494;28;19917;-77
2022/06/17 05:39:37;;;;;;;;;;;17.20;99.90;;;;;;5033385;28;19928;-78
2022/06/17 05:42:02;;;;;;;;;;;17.20;99.90;;;;;;5032657;28;19925;-77
2022/06/17 05:44:28;;;;;;;;;;;17.30;99.90;;;;;;5033793;28;19936;-77
2022/06/17 05:46:53;;;;;;;;;;;17.30;99.90;;;;;;5033060;28;19925;-78
2022/06/17 05:49:19;;;;;;;;;;;17.30;99.90;;;;;;5033401;28;19961;-77
2022/06/17 05:51:45;;;;;;;;;;;17.30;99.90;;;;;;5032615;28;19983;-77
2022/06/17 05:54:10;;;;;;;;;;;17.40;99.90;;;;;;4999232;28;19929;-77
2022/06/17 05:56:36;;;;;;;;;;;17.50;99.90;;;;;;5014990;28;19920;-77
2022/06/17 05:59:01;;;;;;;;;;;17.50;99.90;;;;;;4999029;28;19968;-78
2022/06/17 06:01:27;;;;;;;;;;;17.50;99.90;;;;;;5032667;28;19921;-77
2022/06/17 06:03:52;;;;;;;;;;;17.60;99.90;;;;;;5032303;28;19971;-77
2022/06/17 06:06:18;;;;;;;;;;;17.60;99.90;;;;;;5032819;28;19988;-78
2022/06/17 06:08:43;;;;;;;;;;;17.60;99.90;;;;;;5032682;28;20374;-78
2022/06/17 06:11:09;;;;;;;;;;;17.70;99.90;;;;;;5032240;28;19932;-77
2022/06/17 06:13:35;;;;;;;;;;;17.70;99.90;;;;;;5032806;28;20169;-77
2022/06/17 06:16:01;;;;;;;;;;;17.70;99.90;;;;;;5031932;28;19994;-77
2022/06/17 06:18:31;;;;;;;;;;;17.80;99.90;;;;;;5032225;28;20011;-77
2022/06/17 06:20:57;;;;;;;;;;;17.80;99.90;;;;;;5014745;28;19990;-77
2022/06/17 06:23:22;;;;;;;;;;;17.90;99.90;;;;;;5014902;28;19921;-77
2022/06/17 06:25:48;;;;;;;;;;;18.10;99.90;;;;;;5031243;28;19964;-77
2022/06/17 06:28:18;;;;;;;;;;;18.20;99.90;;;;;;5032458;28;20291;-77
2022/06/17 06:30:49;;;;;;;;;;;18.20;99.90;;;;;;5032272;28;19921;-78
2022/06/17 06:33:15;;;;;;;;;;;18.30;99.90;;;;;;5032593;28;20262;-78
2022/06/17 06:35:40;;;;;;;;;;;18.30;99.90;;;;;;5031895;28;19921;-77
2022/06/17 06:38:06;;;;;;;;;;;18.30;99.90;;;;;;5032045;28;20317;-77
2022/06/17 06:40:32;;;;;;;;;;;18.50;99.90;;;;;;5031689;28;20277;-77
2022/06/17 06:42:58;;;;;;;;;;;18.60;99.90;;;;;;5032111;28;19921;-77
2022/06/17 06:45:25;;;;;;;;;;;18.70;99.90;;;;;;4998003;28;20011;-78
2022/06/17 06:47:51;;;;;;;;;;;18.80;99.90;;;;;;5013907;28;19924;-78
2022/06/17 06:50:19;;;;;;;;;;;18.90;99.90;;;;;;5032281;28;19953;-78
2022/06/17 06:52:45;;;;;;;;;;;19.00;99.90;;;;;;4997995;28;19921;-77
2022/06/17 06:55:11;;;;;;;;;;;19.20;99.90;;;;;;5031450;28;20032;-78
2022/06/17 06:58:00;;;;;;;;;;;19.40;99.90;;;;;;5031874;28;19921;-78
2022/06/17 07:00:28;;;;;;;;;;;19.60;99.90;;;;;;5018434;28;20049;-77
2022/06/17 07:02:53;;;;;;;;;;;19.70;99.90;;;;;;5013574;28;20385;-77
2022/06/17 07:05:19;;;;;;;;;;;19.90;99.90;;;;;;5014315;28;19971;-78
2022/06/17 07:07:44;;;;;;;;;;;20.20;99.90;;;;;;5031812;28;19921;-77
2022/06/17 07:10:15;;;;;;;;;;;20.50;99.90;;;;;;5013489;28;19921;-78
2022/06/17 07:12:40;;;;;;;;;;;20.60;99.90;;;;;;5031613;28;19921;-77
2022/06/17 07:15:06;;;;;;;;;;;20.70;99.90;;;;;;5013774;28;19927;-78
2022/06/17 07:17:32;;;;;;;;;;;20.90;99.90;;;;;;5031659;28;19952;-78
2022/06/17 07:19:58;;;;;;;;;;;20.90;99.90;;;;;;5031408;28;19936;-77
2022/06/17 07:22:24;;;;;;;;;;;21.10;99.90;;;;;;5013814;28;19921;-77
2022/06/17 07:24:49;;;;;;;;;;;21.00;99.90;;;;;;5031715;28;20012;-77
2022/06/17 07:27:15;;;;;;;;;;;21.00;99.90;;;;;;5013638;28;20250;-77
2022/06/17 07:29:41;;;;;;;;;;;21.00;99.90;;;;;;5031666;28;19960;-78
2022/06/17 07:32:06;;;;;;;;;;;20.90;99.90;;;;;;5013531;28;19924;-77
2022/06/17 07:34:32;;;;;;;;;;;21.00;99.90;;;;;;5031764;28;19928;-77
2022/06/17 07:39:54;;;;;;;;;;;21.50;99.90;;;;;;5031796;28;19931;-77
2022/06/17 07:42:24;;;;;;;;;;;21.90;99.90;;;;;;5015357;28;19933;-77
2022/06/17 07:44:50;;;;;;;;;;;22.30;99.90;;;;;;5013797;28;19983;-77
2022/06/17 07:47:17;;;;;;;;;;;23.40;99.90;;;;;;5034076;28;20035;-77
2022/06/17 07:49:43;;;;;;;;;;;25.00;99.90;;;;;;5035472;28;20364;-78
2022/06/17 07:52:09;;;;;;;;;;;25.60;99.90;;;;;;5017945;28;19924;-77
2022/06/17 07:54:35;;;;;;;;;;;25.80;99.90;;;;;;5035441;28;19929;-77
2022/06/17 07:57:00;;;;;;;;;;;25.80;99.90;;;;;;5034569;28;20064;-78
2022/06/17 07:59:26;;;;;;;;;;;25.50;99.90;;;;;;5000981;28;20334;-78
2022/06/17 08:01:52;;;;;;;;;;;25.20;99.90;;;;;;5035268;28;19967;-77
2022/06/17 08:04:17;;;;;;;;;;;24.60;99.90;;;;;;5017556;28;19997;-78
2022/06/17 08:06:49;;;;;;;;;;;24.40;99.90;;;;;;5035176;28;20277;-78
2022/06/17 08:09:17;;;;;;;;;;;24.60;99.90;;;;;;5017017;28;20262;-77
2022/06/17 08:11:43;;;;;;;;;;;24.50;99.90;;;;;;5016830;28;19921;-78
2022/06/17 08:14:10;;;;;;;;;;;24.10;99.90;;;;;;5034900;28;19928;-79
2022/06/17 08:16:36;;;;;;;;;;;23.70;99.90;;;;;;5017026;28;20008;-77
2022/06/17 08:19:04;;;;;;;;;;;24.60;99.90;;;;;;5016790;28;20016;-77
2022/06/17 08:21:30;;;;;;;;;;;23.50;99.90;;;;;;5034825;28;19925;-77
2022/06/17 08:23:56;;;;;;;;;;;23.60;99.90;;;;;;5035049;28;19921;-77
2022/06/17 08:26:22;;;;;;;;;;;24.10;99.90;;;;;;5034492;28;19991;-77
2022/06/17 08:28:47;;;;;;;;;;;25.10;99.90;;;;;;5034445;28;19975;-78
2022/06/17 08:31:13;;;;;;;;;;;26.60;99.90;;;;;;5017070;28;20016;-78
2022/06/17 08:33:38;;;;;;;;;;;27.10;99.90;;;;;;5035246;28;20353;-77
2022/06/17 08:36:10;;;;;;;;;;;28.00;99.90;;;;;;5034369;28;19921;-77
2022/06/17 08:38:38;;;;;;;;;;;28.30;99.90;;;;;;5016496;28;20015;-77
2022/06/17 08:41:34;;;;;;;;;;;27.80;99.90;;;;;;5033843;28;20384;-78
2022/06/17 08:44:28;;;;;;;;;;;27.70;99.90;;;;;;5012859;28;19925;-78
2022/06/17 08:46:58;;;;;;;;;;;27.40;99.90;;;;;;4980879;28;19921;-78
2022/06/17 08:49:24;;;;;;;;;;;26.50;99.90;;;;;;5034002;28;20345;-79
2022/06/17 08:51:50;;;;;;;;;;;26.20;99.90;;;;;;5016042;28;19979;-78
2022/06/17 08:54:34;;;;;;;;;;;25.50;99.90;;;;;;5034012;28;19924;-77
2022/06/17 08:57:00;;;;;;;;;;;25.10;99.90;;;;;;5033226;28;19972;-77
2022/06/17 08:59:34;;;;;;;;;;;24.80;99.90;;;;;;5033268;28;19928;-78
2022/06/17 09:02:04;;;;;;;;;;;24.50;99.90;;;;;;5016040;28;19928;-77
2022/06/17 09:04:43;;;;;;;;;;;24.50;99.90;;;;;;5000438;28;19924;-77
2022/06/17 09:07:27;;;;;;;;;;;24.50;99.90;;;;;;5033871;28;19921;-77
2022/06/17 09:09:55;;;;;;;;;;;24.50;99.90;;;;;;5033909;28;20379;-78
2022/06/17 09:12:29;;;;;;;;;;;24.50;99.90;;;;;;5033524;28;19928;-78
2022/06/17 09:15:10;;;;;;;;;;;24.60;99.90;;;;;;5016321;28;20062;-77
2022/06/17 09:17:53;;;;;;;;;;;24.50;99.90;;;;;;5034044;28;19968;-76
2022/06/17 09:20:22;;;;;;;;;;;24.70;99.90;;;;;;5015502;28;20011;-77
2022/06/17 09:22:50;;;;;;;;;;;24.80;99.90;;;;;;5034010;28;19921;-78
2022/06/17 09:25:19;;;;;;;;;;;24.80;99.90;;;;;;5033277;28;19921;-78
2022/06/17 09:27:46;;;;;;;;;;;24.70;99.90;;;;;;5016398;28;20255;-78
2022/06/17 09:30:15;;;;;;;;;;;25.00;99.90;;;;;;5033145;28;20385;-79
2022/06/17 09:32:53;;;;;;;;;;;24.90;99.90;;;;;;5033678;28;19921;-77
2022/06/17 09:35:28;;;;;;;;;;;24.80;99.90;;;;;;5033334;28;20392;-78
2022/06/17 09:38:05;;;;;;;;;;;24.90;99.90;;;;;;5033543;28;19933;-77
2022/06/17 09:40:31;;;;;;;;;;;24.90;99.90;;;;;;5033065;28;20132;-77
2022/06/17 09:43:09;;;;;;;;;;;25.20;99.90;;;;;;5033408;28;20058;-78
2022/06/17 09:45:55;;;;;;;;;;;24.90;99.90;;;;;;5033449;28;19964;-77
2022/06/17 09:48:21;;;;;;;;;;;25.10;99.90;;;;;;5033116;28;19974;-78
2022/06/17 09:50:50;;;;;;;;;;;25.50;99.90;;;;;;5033547;28;19952;-78
2022/06/17 09:53:15;;;;;;;;;;;25.60;99.90;;;;;;4982474;28;19921;-77
2022/06/17 09:55:44;;;;;;;;;;;26.00;99.90;;;;;;5032695;28;19928;-78
2022/06/17 09:58:19;;;;;;;;;;;26.10;99.90;;;;;;5033064;28;20396;-78
2022/06/17 10:00:47;;;;;;;;;;;26.20;99.90;;;;;;4999156;28;20003;-78
2022/06/17 10:03:30;;;;;;;;;;;26.10;99.90;;;;;;5032646;28;19963;-78
2022/06/17 10:06:05;;;;;;;;;;;25.70;99.90;;;;;;5032939;28;19921;-78
2022/06/17 10:08:49;;;;;;;;;;;25.60;99.90;;;;;;5015028;28;19921;-77
2022/06/17 10:11:30;;;;;;;;;;;25.20;99.90;;;;;;5014699;28;19974;-77
2022/06/17 10:14:06;;;;;;;;;;;25.30;99.90;;;;;;4998473;28;19921;-77
2022/06/17 10:19:45;;;;;;;;;;;25.50;99.90;;;;;;5032911;28;19920;-77
2022/06/17 10:22:29;;;;;;;;;;;25.50;99.90;;;;;;5014088;28;20365;-78
2022/06/17 10:25:14;;;;;;;;;;;25.30;99.90;;;;;;5032697;28;19921;-78
2022/06/17 10:27:39;;;;;;;;;;;25.10;99.90;;;;;;5014292;28;20400;-77
2022/06/17 10:30:11;;;;;;;;;;;25.10;99.90;;;;;;5032592;28;19921;-79
2022/06/17 10:32:40;;;;;;;;;;;24.90;99.90;;;;;;5032508;28;20322;-77
2022/06/17 10:35:07;;;;;;;;;;;25.00;99.90;;;;;;5014750;28;19921;-77
2022/06/17 10:37:34;;;;;;;;;;;25.10;99.90;;;;;;5014679;28;19921;-77
2022/06/17 10:40:00;;;;;;;;;;;25.30;99.90;;;;;;5032225;28;19925;-78
2022/06/17 10:42:26;;;;;;;;;;;25.20;99.90;;;;;;5031739;28;19986;-77
2022/06/17 10:44:53;;;;;;;;;;;25.20;99.90;;;;;;5032231;28;19983;-77
2022/06/17 10:47:36;;;;;;;;;;;25.50;99.90;;;;;;4998347;28;19964;-78
2022/06/17 10:50:18;;;;;;;;;;;25.60;99.90;;;;;;5014713;28;20024;-77
2022/06/17 10:52:56;;;;;;;;;;;25.90;99.90;;;;;;5032474;28;20284;-78
2022/06/17 10:55:27;;;;;;;;;;;26.30;99.90;;;;;;5031206;28;19972;-78
2022/06/17 10:58:13;;;;;;;;;;;26.70;99.90;;;;;;5032238;28;19979;-78
2022/06/17 11:00:44;;;;;;;;;;;26.80;99.90;;;;;;5014016;28;20338;-78
2022/06/17 11:03:23;;;;;;;;;;;27.10;99.90;;;;;;5014655;28;20005;-77
2022/06/17 11:05:57;;;;;;;;;;;27.40;99.90;;;;;;5014225;28;20311;-78
2022/06/17 11:08:25;;;;;;;;;;;27.80;99.90;;;;;;5013983;28;19921;-77
2022/06/17 11:10:52;;;;;;;;;;;27.90;99.90;;;;;;4989729;28;19921;-77
2022/06/17 11:13:19;;;;;;;;;;;28.10;99.90;;;;;;5014026;28;20322;-78
2022/06/17 11:15:46;;;;;;;;;;;28.20;99.90;;;;;;5014047;28;19921;-78
2022/06/17 11:18:17;;;;;;;;;;;27.80;99.90;;;;;;4997903;28;19921;-80
2022/06/17 11:20:52;;;;;;;;;;;27.70;99.90;;;;;;5031556;28;19921;-78
2022/06/17 11:23:23;;;;;;;;;;;27.30;99.90;;;;;;5014068;28;19921;-79
2022/06/17 11:25:53;;;;;;;;;;;27.40;99.90;;;;;;5031226;28;20467;-79
2022/06/17 11:28:24;;;;;;;;;;;27.30;99.90;;;;;;5031684;28;20401;-78
2022/06/17 11:30:52;;;;;;;;;;;27.20;99.90;;;;;;5031732;28;20016;-78
2022/06/17 11:33:23;;;;;;;;;;;27.00;99.90;;;;;;5014106;28;20320;-78
2022/06/17 11:35:56;;;;;;;;;;;26.80;99.90;;;;;;5013729;28;19967;-77
2022/06/17 11:38:24;;;;;;;;;;;27.00;99.90;;;;;;5013963;28;20360;-77
2022/06/17 11:40:55;;;;;;;;;;;27.30;99.90;;;;;;5013604;28;19932;-77
2022/06/17 11:43:34;;;;;;;;;;;27.20;99.90;;;;;;5031201;28;20334;-77
2022/06/17 11:46:08;;;;;;;;;;;27.30;99.90;;;;;;5031362;28;20008;-78
2022/06/17 11:48:40;;;;;;;;;;;28.10;99.90;;;;;;5031423;28;19928;-78
2022/06/17 11:51:12;;;;;;;;;;;29.00;99.90;;;;;;5013223;28;19967;-78
2022/06/17 11:53:46;;;;;;;;;;;29.60;99.90;;;;;;5013965;28;20369;-78
2022/06/17 11:56:25;;;;;;;;;;;29.60;99.90;;;;;;5013536;28;19928;-80
2022/06/17 11:58:53;;;;;;;;;;;29.30;99.90;;;;;;5031663;28;20400;-79
2022/06/17 12:01:18;;;;;;;;;;;29.30;99.90;;;;;;5030761;28;19960;-78
2022/06/17 12:03:45;;;;;;;;;;;29.50;99.90;;;;;;5031695;28;19928;-78
2022/06/17 12:06:23;;;;;;;;;;;29.60;99.90;;;;;;5031029;28;19928;-78
2022/06/17 12:08:57;;;;;;;;;;;29.60;99.90;;;;;;5014135;28;19928;-78
2022/06/17 12:11:33;;;;;;;;;;;29.50;99.90;;;;;;5030877;28;19920;-79
2022/06/17 12:14:02;;;;;;;;;;;29.20;99.90;;;;;;5031387;28;20019;-78
2022/06/17 12:16:30;;;;;;;;;;;29.30;99.90;;;;;;5012501;28;19921;-78
2022/06/17 12:18:57;;;;;;;;;;;29.40;99.90;;;;;;5031451;28;19933;-78
2022/06/17 12:21:30;;;;;;;;;;;29.60;99.90;;;;;;5030801;28;20367;-78
2022/06/17 12:24:15;;;;;;;;;;;29.10;99.90;;;;;;5013852;28;19924;-77
2022/06/17 12:26:48;;;;;;;;;;;29.20;99.90;;;;;;5013226;28;19929;-79
2022/06/17 12:29:26;;;;;;;;;;;29.20;99.90;;;;;;5031443;28;19921;-79
2022/06/17 12:31:53;;;;;;;;;;;29.00;99.90;;;;;;5031574;28;19944;-80
2022/06/17 12:34:41;;;;;;;;;;;28.80;99.90;;;;;;5034610;28;19921;-78
2022/06/17 12:37:18;;;;;;;;;;;28.80;99.90;;;;;;5016209;28;19985;-77
2022/06/17 12:40:02;;;;;;;;;;;28.90;99.90;;;;;;5017159;28;19928;-80
2022/06/17 12:42:36;;;;;;;;;;;29.10;99.90;;;;;;5016689;28;19921;-78
2022/06/17 12:45:37;;;;;;;;;;;29.40;99.90;;;;;;5034745;28;19921;-78
2022/06/17 12:48:03;;;;;;;;;;;29.40;99.90;;;;;;4933763;29;20017;-79
2022/06/17 12:53:37;;;;;;;;;;;29.40;99.90;;;;;;5016498;28;20004;-80
2022/06/17 12:56:09;;;;;;;;;;;29.00;99.90;;;;;;5033970;28;19979;-78
2022/06/17 12:58:34;;;;;;;;;;;28.80;99.90;;;;;;5016158;28;19921;-78
2022/06/17 13:01:03;;;;;;;;;;;28.80;99.90;;;;;;5034192;28;19943;-77
2022/06/17 13:03:48;;;;;;;;;;;29.00;99.90;;;;;;5033907;28;20270;-78
2022/06/17 13:06:19;;;;;;;;;;;29.00;99.90;;;;;;5033613;28;19932;-80
2022/06/17 13:08:54;;;;;;;;;;;29.00;99.90;;;;;;5015731;28;19967;-79
2022/06/17 13:11:29;;;;;;;;;;;29.10;99.90;;;;;;5032892;28;20333;-79
2022/06/17 13:14:03;;;;;;;;;;;29.00;99.90;;;;;;5034095;28;19925;-78
2022/06/17 13:16:38;;;;;;;;;;;29.00;99.90;;;;;;5033383;28;20016;-78
2022/06/17 13:19:06;;;;;;;;;;;28.80;99.90;;;;;;5015770;28;19921;-79
2022/06/17 13:21:41;;;;;;;;;;;28.60;99.90;;;;;;5033639;28;20285;-79
2022/06/17 13:24:08;;;;;;;;;;;28.70;99.90;;;;;;4999826;28;19925;-78
2022/06/17 13:26:39;;;;;;;;;;;28.70;99.90;;;;;;5033090;28;19928;-78
2022/06/17 13:29:13;;;;;;;;;;;28.60;99.90;;;;;;5033363;28;19943;-78
2022/06/17 13:31:41;;;;;;;;;;;28.50;99.90;;;;;;5033317;28;19921;-77
2022/06/17 13:34:12;;;;;;;;;;;28.40;99.90;;;;;;5033411;28;20007;-78
2022/06/17 13:37:01;;;;;;;;;;;28.50;99.90;;;;;;5032553;28;19921;-78
2022/06/17 13:39:30;;;;;;;;;;;28.60;99.90;;;;;;5014821;28;19921;-79
2022/06/17 13:41:58;;;;;;;;;;;28.40;99.90;;;;;;5033238;28;20311;-79
2022/06/17 13:44:41;;;;;;;;;;;28.50;99.90;;;;;;5032426;28;19975;-79
2022/06/17 13:47:15;;;;;;;;;;;28.50;99.90;;;;;;5033336;28;20012;-79
2022/06/17 13:49:41;;;;;;;;;;;28.60;99.90;;;;;;5014759;28;19925;-79
2022/06/17 13:52:25;;;;;;;;;;;28.70;99.90;;;;;;5033318;28;19925;-78
2022/06/17 13:54:50;;;;;;;;;;;28.70;99.90;;;;;;5024642;28;19921;-78
2022/06/17 13:57:34;;;;;;;;;;;28.60;99.90;;;;;;5032346;28;19921;-79
2022/06/17 14:00:20;;;;;;;;;;;28.60;99.90;;;;;;5032431;28;19921;-78
2022/06/17 14:02:51;;;;;;;;;;;28.50;99.90;;;;;;5014716;28;19986;-80
2022/06/17 14:05:28;;;;;;;;;;;28.20;99.90;;;;;;5032666;28;19924;-79
2022/06/17 14:07:59;;;;;;;;;;;28.10;99.90;;;;;;5032702;28;19923;-78
2022/06/17 14:10:36;;;;;;;;;;;27.90;99.90;;;;;;5032404;28;19983;-78
2022/06/17 14:13:34;;;;;;;;;;;27.70;99.90;;;;;;5000221;28;19921;-76
2022/06/17 14:16:03;;;;;;;;;;;27.60;99.90;;;;;;4974620;28;20368;-79
2022/06/17 14:18:45;;;;;;;;;;;27.70;99.90;;;;;;5033074;28;20012;-79
2022/06/17 14:21:33;;;;;;;;;;;27.70;99.90;;;;;;5032483;28;19975;-78
2022/06/17 14:23:58;;;;;;;;;;;27.70;99.90;;;;;;5016436;28;19920;-77
2022/06/17 14:26:39;;;;;;;;;;;27.80;99.90;;;;;;5032523;28;20392;-79
2022/06/17 14:29:08;;;;;;;;;;;27.90;99.90;;;;;;5014441;28;20342;-78
2022/06/17 14:31:35;;;;;;;;;;;28.00;99.90;;;;;;5031531;28;19921;-78
2022/06/17 14:34:02;;;;;;;;;;;28.00;99.90;;;;;;5029579;28;19917;-79
2022/06/17 14:36:40;;;;;;;;;;;28.00;99.90;;;;;;5030778;28;19920;-79
2022/06/17 14:39:11;;;;;;;;;;;27.80;99.90;;;;;;5030364;28;19921;-78
2022/06/17 14:44:28;;;;;;;;;;;27.90;99.90;;;;;;5031146;28;20321;-78
2022/06/17 14:47:13;;;;;;;;;;;27.90;99.90;;;;;;5030659;28;19943;-77
2022/06/17 14:49:57;;;;;;;;;;;27.90;99.90;;;;;;5030635;28;19931;-78
2022/06/17 14:52:26;;;;;;;;;;;27.80;99.90;;;;;;5013785;28;19974;-77
2022/06/17 14:54:59;;;;;;;;;;;27.80;99.90;;;;;;5030863;28;20015;-78